JAL528 RJCC-RJTT
Flight info
| Callsign | JAL528 |
|---|---|
| Flight time | 1h 36m |
| Altitude | 32000 |
| Route | TOBBY Y10 DAIGO Y108 MESSE |
| Aircraft | A359/H-SDE2E3GHIJ3J4J5LM1ORWXY/LB1D1 |
Departure
| Time | 2026-05-04 16:29 |
|---|---|
| Airport | New Chitose Airport (RJCC) |
Arrival
| Time | 2026-05-04 18:06 |
|---|---|
| Airport | Tokyo Haneda International Airport (RJTT) |
| Time | Latitude | Longitude | Altitude | Speed | Heading |
|---|---|---|---|---|---|
| 2026-05-04 16:07 | 42.78533 | 141.68164 | 85 ft | 0 kts | 313° |
| 2026-05-04 16:15 | 42.78530 | 141.68167 | 90 ft | 3 kts | 312° |
| 2026-05-04 16:16 | 42.78504 | 141.68226 | 90 ft | 4 kts | 279° |
| 2026-05-04 16:16 | 42.78529 | 141.68319 | 89 ft | 4 kts | 221° |
| 2026-05-04 16:17 | 42.78573 | 141.68360 | 90 ft | 4 kts | 208° |
| 2026-05-04 16:18 | 42.78598 | 141.68378 | 85 ft | 0 kts | 208° |
| 2026-05-04 16:23 | 42.78430 | 141.68482 | 88 ft | 17 kts | 114° |
| 2026-05-04 16:24 | 42.78008 | 141.68731 | 85 ft | 22 kts | 171° |
| 2026-05-04 16:25 | 42.77686 | 141.68787 | 90 ft | 23 kts | 173° |
| 2026-05-04 16:26 | 42.77032 | 141.68902 | 88 ft | 27 kts | 172° |
| 2026-05-04 16:26 | 42.76499 | 141.68996 | 88 ft | 23 kts | 173° |
| 2026-05-04 16:27 | 42.76195 | 141.69056 | 90 ft | 18 kts | 154° |
| 2026-05-04 16:28 | 42.76264 | 141.69261 | 89 ft | 9 kts | 353° |
| 2026-05-04 16:28 | 42.77717 | 141.69006 | 96 ft | 160 kts | 352° |
| 2026-05-04 16:29 | 42.82759 | 141.69086 | 2473 ft | 215 kts | 5° |
| 2026-05-04 16:30 | 42.86697 | 141.72437 | 4650 ft | 261 kts | 73° |
| 2026-05-04 16:31 | 42.86633 | 141.77210 | 6334 ft | 275 kts | 105° |
| 2026-05-04 16:31 | 42.82095 | 141.81437 | 8983 ft | 292 kts | 179° |
| 2026-05-04 16:32 | 42.75769 | 141.81189 | 11393 ft | 314 kts | 186° |
| 2026-05-04 16:33 | 42.71386 | 141.80880 | 13298 ft | 317 kts | 186° |
| 2026-05-04 16:33 | 42.66837 | 141.80576 | 14420 ft | 344 kts | 186° |
| 2026-05-04 16:34 | 42.61807 | 141.80270 | 15263 ft | 374 kts | 186° |
| 2026-05-04 16:34 | 42.59247 | 141.80109 | 15938 ft | 380 kts | 186° |
| 2026-05-04 16:35 | 42.51253 | 141.79613 | 18177 ft | 389 kts | 187° |
| 2026-05-04 16:35 | 42.43240 | 141.79120 | 20426 ft | 397 kts | 187° |
| 2026-05-04 16:36 | 42.40510 | 141.78953 | 21159 ft | 400 kts | 188° |
| 2026-05-04 16:36 | 42.34950 | 141.78613 | 22553 ft | 405 kts | 188° |
| 2026-05-04 16:37 | 42.29287 | 141.78266 | 23921 ft | 410 kts | 188° |
| 2026-05-04 16:37 | 42.26425 | 141.78090 | 24571 ft | 412 kts | 189° |
| 2026-05-04 16:37 | 42.20696 | 141.77744 | 26031 ft | 411 kts | 189° |
| 2026-05-04 16:38 | 42.15016 | 141.77402 | 27595 ft | 406 kts | 191° |
| 2026-05-04 16:39 | 42.06614 | 141.76895 | 29647 ft | 401 kts | 192° |
| 2026-05-04 16:39 | 42.01064 | 141.76555 | 30784 ft | 400 kts | 192° |
| 2026-05-04 16:40 | 41.95635 | 141.76224 | 31522 ft | 406 kts | 192° |
| 2026-05-04 16:40 | 41.89925 | 141.76126 | 31723 ft | 415 kts | 188° |
| 2026-05-04 16:41 | 41.75488 | 141.77488 | 31721 ft | 417 kts | 186° |
| 2026-05-04 16:43 | 41.61046 | 141.78869 | 31730 ft | 418 kts | 187° |
| 2026-05-04 16:43 | 41.52392 | 141.79582 | 31728 ft | 410 kts | 190° |
| 2026-05-04 16:44 | 41.41477 | 141.77061 | 31729 ft | 395 kts | 202° |
| 2026-05-04 16:45 | 41.36133 | 141.75277 | 31732 ft | 395 kts | 202° |
| 2026-05-04 16:46 | 41.22839 | 141.70919 | 31731 ft | 395 kts | 202° |
| 2026-05-04 16:47 | 41.17416 | 141.69159 | 31719 ft | 409 kts | 202° |
| 2026-05-04 16:47 | 41.11798 | 141.67338 | 31718 ft | 418 kts | 202° |
| 2026-05-04 16:48 | 41.01028 | 141.63887 | 31719 ft | 417 kts | 202° |
| 2026-05-04 16:49 | 40.89879 | 141.60300 | 31721 ft | 415 kts | 202° |
| 2026-05-04 16:50 | 40.78695 | 141.56729 | 31721 ft | 413 kts | 202° |
| 2026-05-04 16:51 | 40.70314 | 141.54052 | 31721 ft | 413 kts | 202° |
| 2026-05-04 16:52 | 40.59222 | 141.50528 | 31721 ft | 410 kts | 203° |
| 2026-05-04 16:53 | 40.50905 | 141.47891 | 31720 ft | 409 kts | 203° |
| 2026-05-04 16:54 | 40.39880 | 141.44401 | 31720 ft | 408 kts | 203° |
| 2026-05-04 16:55 | 40.23364 | 141.39203 | 31720 ft | 406 kts | 203° |
| 2026-05-04 16:56 | 40.09661 | 141.34909 | 31761 ft | 406 kts | 203° |
| 2026-05-04 16:57 | 40.01423 | 141.32338 | 31766 ft | 406 kts | 203° |
| 2026-05-04 16:58 | 39.90509 | 141.28784 | 31775 ft | 403 kts | 204° |
| 2026-05-04 17:00 | 39.74227 | 141.23413 | 31784 ft | 404 kts | 204° |
| 2026-05-04 17:01 | 39.60601 | 141.18968 | 31789 ft | 404 kts | 204° |
| 2026-05-04 17:02 | 39.49706 | 141.15426 | 31795 ft | 405 kts | 204° |
| 2026-05-04 17:03 | 39.41493 | 141.12758 | 31799 ft | 406 kts | 203° |
| 2026-05-04 17:03 | 39.33243 | 141.10269 | 31805 ft | 408 kts | 202° |
| 2026-05-04 17:04 | 39.22175 | 141.06974 | 31814 ft | 408 kts | 203° |
| 2026-05-04 17:05 | 39.11157 | 141.03662 | 31818 ft | 408 kts | 203° |
| 2026-05-04 17:06 | 39.02854 | 141.01166 | 31824 ft | 409 kts | 203° |
| 2026-05-04 17:07 | 38.95484 | 140.98970 | 31831 ft | 408 kts | 203° |
| 2026-05-04 17:07 | 38.89015 | 140.97043 | 31833 ft | 408 kts | 203° |
| 2026-05-04 17:08 | 38.80776 | 140.94584 | 31848 ft | 408 kts | 202° |
| 2026-05-04 17:09 | 38.75246 | 140.92948 | 31839 ft | 408 kts | 203° |
| 2026-05-04 17:09 | 38.69713 | 140.91311 | 31836 ft | 408 kts | 203° |
| 2026-05-04 17:10 | 38.55895 | 140.87213 | 31861 ft | 407 kts | 203° |
| 2026-05-04 17:11 | 38.50407 | 140.85594 | 31861 ft | 407 kts | 203° |
| 2026-05-04 17:12 | 38.42126 | 140.83160 | 31864 ft | 407 kts | 203° |
| 2026-05-04 17:13 | 38.28849 | 140.79269 | 31867 ft | 407 kts | 203° |
| 2026-05-04 17:14 | 38.19655 | 140.76592 | 31856 ft | 408 kts | 203° |
| 2026-05-04 17:15 | 38.11946 | 140.74338 | 31858 ft | 408 kts | 203° |
| 2026-05-04 17:16 | 38.00922 | 140.71120 | 31862 ft | 408 kts | 203° |
| 2026-05-04 17:17 | 37.89866 | 140.67913 | 31873 ft | 408 kts | 203° |
| 2026-05-04 17:18 | 37.78834 | 140.64731 | 31889 ft | 408 kts | 203° |
| 2026-05-04 17:19 | 37.67778 | 140.61542 | 31909 ft | 408 kts | 203° |
| 2026-05-04 17:20 | 37.56817 | 140.58386 | 31915 ft | 408 kts | 203° |
| 2026-05-04 17:20 | 37.48527 | 140.56006 | 31947 ft | 408 kts | 203° |
| 2026-05-04 17:21 | 37.37455 | 140.52834 | 31993 ft | 407 kts | 203° |
| 2026-05-04 17:22 | 37.31918 | 140.51252 | 31995 ft | 408 kts | 203° |
| 2026-05-04 17:23 | 37.20834 | 140.48107 | 31988 ft | 409 kts | 202° |
| 2026-05-04 17:24 | 37.12507 | 140.45741 | 31990 ft | 409 kts | 202° |
| 2026-05-04 17:25 | 37.03534 | 140.43191 | 31992 ft | 409 kts | 202° |
| 2026-05-04 17:26 | 36.92480 | 140.40067 | 31988 ft | 410 kts | 202° |
| 2026-05-04 17:27 | 36.78582 | 140.36205 | 31990 ft | 414 kts | 199° |
| 2026-05-04 17:27 | 36.75006 | 140.35853 | 31994 ft | 430 kts | 191° |
| 2026-05-04 17:28 | 36.68933 | 140.37305 | 31977 ft | 459 kts | 176° |
| 2026-05-04 17:29 | 36.50810 | 140.45531 | 31969 ft | 456 kts | 174° |
| 2026-05-04 17:30 | 36.42019 | 140.49458 | 31282 ft | 452 kts | 174° |
| 2026-05-04 17:31 | 36.36129 | 140.52036 | 30780 ft | 455 kts | 174° |
| 2026-05-04 17:31 | 36.27148 | 140.56009 | 30031 ft | 459 kts | 174° |
| 2026-05-04 17:32 | 36.21119 | 140.58670 | 29519 ft | 459 kts | 174° |
| 2026-05-04 17:33 | 36.12313 | 140.62561 | 28776 ft | 456 kts | 174° |
| 2026-05-04 17:33 | 36.09325 | 140.63878 | 28534 ft | 455 kts | 174° |
| 2026-05-04 17:34 | 36.00413 | 140.67812 | 27270 ft | 450 kts | 174° |
| 2026-05-04 17:34 | 35.97473 | 140.69108 | 26465 ft | 448 kts | 174° |
| 2026-05-04 17:35 | 35.88998 | 140.72861 | 25697 ft | 408 kts | 174° |
| 2026-05-04 17:35 | 35.83877 | 140.75131 | 25443 ft | 380 kts | 175° |
| 2026-05-04 17:35 | 35.81425 | 140.76205 | 25279 ft | 369 kts | 176° |
| 2026-05-04 17:36 | 35.79046 | 140.77242 | 25112 ft | 357 kts | 176° |
| 2026-05-04 17:36 | 35.76732 | 140.78231 | 24934 ft | 344 kts | 178° |
| 2026-05-04 17:36 | 35.74456 | 140.78810 | 24350 ft | 325 kts | 191° |
| 2026-05-04 17:36 | 35.72274 | 140.78690 | 23857 ft | 305 kts | 203° |
| 2026-05-04 17:37 | 35.70304 | 140.77922 | 23649 ft | 293 kts | 214° |
| 2026-05-04 17:37 | 35.68566 | 140.76710 | 23457 ft | 291 kts | 220° |
| 2026-05-04 17:37 | 35.66841 | 140.75342 | 23227 ft | 291 kts | 220° |
| 2026-05-04 17:37 | 35.65167 | 140.74007 | 23009 ft | 290 kts | 220° |
| 2026-05-04 17:38 | 35.63473 | 140.72659 | 22771 ft | 290 kts | 220° |
| 2026-05-04 17:38 | 35.61785 | 140.71319 | 22522 ft | 289 kts | 220° |
| 2026-05-04 17:38 | 35.60094 | 140.69978 | 22273 ft | 289 kts | 220° |
| 2026-05-04 17:38 | 35.58408 | 140.68639 | 22112 ft | 288 kts | 220° |
| 2026-05-04 17:39 | 35.55045 | 140.65974 | 21861 ft | 288 kts | 220° |
| 2026-05-04 17:39 | 35.53354 | 140.64638 | 21736 ft | 289 kts | 220° |
| 2026-05-04 17:39 | 35.51667 | 140.63300 | 21620 ft | 288 kts | 220° |
| 2026-05-04 17:40 | 35.49992 | 140.61976 | 21488 ft | 286 kts | 219° |
| 2026-05-04 17:40 | 35.48316 | 140.60652 | 21372 ft | 287 kts | 219° |
| 2026-05-04 17:40 | 35.46660 | 140.59343 | 21243 ft | 287 kts | 219° |
| 2026-05-04 17:40 | 35.44958 | 140.58001 | 21114 ft | 287 kts | 219° |
| 2026-05-04 17:41 | 35.43303 | 140.56694 | 20991 ft | 287 kts | 219° |
| 2026-05-04 17:41 | 35.41621 | 140.55366 | 20867 ft | 287 kts | 219° |
| 2026-05-04 17:41 | 35.39942 | 140.54041 | 20742 ft | 287 kts | 219° |
| 2026-05-04 17:41 | 35.38266 | 140.52720 | 20617 ft | 286 kts | 219° |
| 2026-05-04 17:42 | 35.36592 | 140.51400 | 20493 ft | 286 kts | 219° |
| 2026-05-04 17:42 | 35.34916 | 140.50081 | 20275 ft | 285 kts | 219° |
| 2026-05-04 17:42 | 35.33259 | 140.48782 | 20081 ft | 279 kts | 219° |
| 2026-05-04 17:42 | 35.31648 | 140.47520 | 19824 ft | 272 kts | 219° |
| 2026-05-04 17:43 | 35.30062 | 140.46274 | 19494 ft | 269 kts | 219° |
| 2026-05-04 17:43 | 35.28515 | 140.45058 | 19159 ft | 266 kts | 219° |
| 2026-05-04 17:43 | 35.26965 | 140.43839 | 18824 ft | 263 kts | 219° |
| 2026-05-04 17:43 | 35.25428 | 140.42631 | 18491 ft | 261 kts | 219° |
| 2026-05-04 17:44 | 35.23910 | 140.41440 | 18162 ft | 259 kts | 219° |
| 2026-05-04 17:44 | 35.22400 | 140.40256 | 17835 ft | 256 kts | 219° |
| 2026-05-04 17:44 | 35.20905 | 140.39084 | 17510 ft | 255 kts | 219° |
| 2026-05-04 17:44 | 35.19432 | 140.37895 | 17182 ft | 253 kts | 221° |
| 2026-05-04 17:45 | 35.18142 | 140.36463 | 16870 ft | 249 kts | 232° |
| 2026-05-04 17:45 | 35.17121 | 140.34661 | 16691 ft | 266 kts | 239° |
| 2026-05-04 17:45 | 35.16163 | 140.32716 | 16609 ft | 272 kts | 239° |
| 2026-05-04 17:45 | 35.15197 | 140.30747 | 16181 ft | 270 kts | 239° |
| 2026-05-04 17:46 | 35.14232 | 140.28789 | 15778 ft | 268 kts | 239° |
| 2026-05-04 17:46 | 35.13265 | 140.26837 | 15474 ft | 269 kts | 239° |
| 2026-05-04 17:46 | 35.12291 | 140.24875 | 15185 ft | 270 kts | 239° |
| 2026-05-04 17:46 | 35.11319 | 140.22918 | 14901 ft | 270 kts | 239° |
| 2026-05-04 17:47 | 35.10347 | 140.20964 | 14675 ft | 269 kts | 239° |
| 2026-05-04 17:47 | 35.09385 | 140.19033 | 14363 ft | 269 kts | 239° |
| 2026-05-04 17:47 | 35.08414 | 140.17086 | 14071 ft | 269 kts | 239° |
| 2026-05-04 17:47 | 35.07441 | 140.15134 | 13786 ft | 269 kts | 239° |
| 2026-05-04 17:48 | 35.06471 | 140.13193 | 13504 ft | 269 kts | 239° |
| 2026-05-04 17:48 | 35.05498 | 140.11244 | 13221 ft | 268 kts | 239° |
| 2026-05-04 17:48 | 35.04526 | 140.09302 | 12947 ft | 268 kts | 239° |
| 2026-05-04 17:48 | 35.03554 | 140.07352 | 12656 ft | 269 kts | 239° |
| 2026-05-04 17:49 | 35.02581 | 140.05405 | 12370 ft | 269 kts | 239° |
| 2026-05-04 17:49 | 35.01607 | 140.03458 | 12090 ft | 268 kts | 239° |
| 2026-05-04 17:49 | 35.00638 | 140.01520 | 11809 ft | 267 kts | 239° |
| 2026-05-04 17:49 | 34.99669 | 139.99584 | 11528 ft | 268 kts | 239° |
| 2026-05-04 17:50 | 34.98710 | 139.97672 | 11246 ft | 269 kts | 239° |
| 2026-05-04 17:50 | 34.97730 | 139.95720 | 11042 ft | 264 kts | 240° |
| 2026-05-04 17:50 | 34.96818 | 139.93828 | 10816 ft | 256 kts | 244° |
| 2026-05-04 17:50 | 34.96255 | 139.91781 | 10569 ft | 256 kts | 261° |
| 2026-05-04 17:51 | 34.96310 | 139.89610 | 10325 ft | 259 kts | 279° |
| 2026-05-04 17:51 | 34.97007 | 139.87607 | 10073 ft | 266 kts | 298° |
| 2026-05-04 17:51 | 34.98304 | 139.86003 | 9860 ft | 267 kts | 320° |
| 2026-05-04 17:51 | 34.99972 | 139.85094 | 9638 ft | 270 kts | 340° |
| 2026-05-04 17:52 | 35.01857 | 139.84996 | 9410 ft | 275 kts | 2° |
| 2026-05-04 17:52 | 35.03699 | 139.85524 | 9240 ft | 268 kts | 8° |
| 2026-05-04 17:52 | 35.05484 | 139.85869 | 9066 ft | 252 kts | 353° |
| 2026-05-04 17:52 | 35.07189 | 139.85608 | 8717 ft | 245 kts | 341° |
| 2026-05-04 17:53 | 35.08829 | 139.85110 | 8291 ft | 238 kts | 339° |
| 2026-05-04 17:53 | 35.10391 | 139.84609 | 7926 ft | 224 kts | 339° |
| 2026-05-04 17:53 | 35.11844 | 139.84152 | 7657 ft | 210 kts | 339° |
| 2026-05-04 17:53 | 35.13223 | 139.83713 | 7466 ft | 193 kts | 338° |
| 2026-05-04 17:54 | 35.14447 | 139.83327 | 7363 ft | 172 kts | 338° |
| 2026-05-04 17:54 | 35.15602 | 139.82954 | 7023 ft | 176 kts | 337° |
| 2026-05-04 17:54 | 35.16806 | 139.82558 | 6760 ft | 180 kts | 338° |
| 2026-05-04 17:54 | 35.18010 | 139.82172 | 6568 ft | 178 kts | 338° |
| 2026-05-04 17:55 | 35.19206 | 139.81790 | 6386 ft | 177 kts | 338° |
| 2026-05-04 17:55 | 35.20392 | 139.81413 | 6198 ft | 175 kts | 338° |
| 2026-05-04 17:55 | 35.21556 | 139.81052 | 6015 ft | 174 kts | 338° |
| 2026-05-04 17:55 | 35.22714 | 139.80684 | 5838 ft | 174 kts | 338° |
| 2026-05-04 17:56 | 35.23877 | 139.80313 | 5669 ft | 173 kts | 338° |
| 2026-05-04 17:56 | 35.24644 | 139.80068 | 5572 ft | 172 kts | 338° |
| 2026-05-04 17:56 | 35.25344 | 139.79844 | 5465 ft | 172 kts | 338° |
| 2026-05-04 17:56 | 35.25972 | 139.79644 | 5369 ft | 171 kts | 338° |
| 2026-05-04 17:57 | 35.27129 | 139.79275 | 5189 ft | 171 kts | 339° |
| 2026-05-04 17:57 | 35.28284 | 139.78912 | 5005 ft | 171 kts | 339° |
| 2026-05-04 17:57 | 35.29433 | 139.78545 | 4836 ft | 171 kts | 339° |
| 2026-05-04 17:57 | 35.30566 | 139.78202 | 4638 ft | 170 kts | 341° |
| 2026-05-04 17:58 | 35.31776 | 139.78184 | 4452 ft | 183 kts | 4° |
| 2026-05-04 17:58 | 35.32923 | 139.78896 | 4236 ft | 191 kts | 27° |
| 2026-05-04 17:58 | 35.33987 | 139.79880 | 4023 ft | 192 kts | 29° |
| 2026-05-04 17:58 | 35.35039 | 139.80876 | 3821 ft | 191 kts | 29° |
| 2026-05-04 17:59 | 35.36092 | 139.81856 | 3617 ft | 189 kts | 28° |
| 2026-05-04 17:59 | 35.37142 | 139.82816 | 3423 ft | 188 kts | 28° |
| 2026-05-04 17:59 | 35.39225 | 139.84711 | 3030 ft | 186 kts | 28° |
| 2026-05-04 18:00 | 35.40227 | 139.85616 | 2844 ft | 185 kts | 28° |
| 2026-05-04 18:00 | 35.41170 | 139.86426 | 2667 ft | 181 kts | 24° |
| 2026-05-04 18:00 | 35.42307 | 139.86887 | 2487 ft | 171 kts | 360° |
| 2026-05-04 18:00 | 35.43445 | 139.86910 | 2308 ft | 155 kts | 352° |
| 2026-05-04 18:01 | 35.44440 | 139.86757 | 2156 ft | 148 kts | 345° |
| 2026-05-04 18:01 | 35.45410 | 139.86416 | 2033 ft | 144 kts | 334° |
| 2026-05-04 18:01 | 35.46305 | 139.85869 | 1830 ft | 144 kts | 330° |
| 2026-05-04 18:02 | 35.48036 | 139.84705 | 1448 ft | 142 kts | 330° |
| 2026-05-04 18:02 | 35.48884 | 139.84127 | 1261 ft | 132 kts | 331° |
| 2026-05-04 18:02 | 35.49140 | 139.83946 | 1207 ft | 130 kts | 330° |
| 2026-05-04 18:02 | 35.49391 | 139.83764 | 1150 ft | 128 kts | 329° |
| 2026-05-04 18:03 | 35.49740 | 139.83512 | 1072 ft | 126 kts | 330° |
| 2026-05-04 18:03 | 35.49983 | 139.83339 | 1019 ft | 125 kts | 330° |
| 2026-05-04 18:03 | 35.50740 | 139.82804 | 838 ft | 126 kts | 330° |
| 2026-05-04 18:03 | 35.51491 | 139.82270 | 696 ft | 127 kts | 330° |
| 2026-05-04 18:04 | 35.52134 | 139.81815 | 624 ft | 131 kts | 330° |
| 2026-05-04 18:04 | 35.52882 | 139.81288 | 408 ft | 130 kts | 331° |
| 2026-05-04 18:04 | 35.54098 | 139.80417 | 110 ft | 122 kts | 330° |
| 2026-05-04 18:05 | 35.54592 | 139.80054 | 47 ft | 124 kts | 331° |
| 2026-05-04 18:05 | 35.54719 | 139.79963 | 35 ft | 124 kts | 331° |
| 2026-05-04 18:06 | 35.55753 | 139.79255 | 33 ft | 106 kts | 332° |
| 2026-05-04 18:06 | 35.56076 | 139.79020 | 33 ft | 49 kts | 328° |
| 2026-05-04 18:06 | 35.56137 | 139.78974 | 33 ft | 0 kts | 328° |
| 2026-05-04 18:07 | 35.56140 | 139.78971 | 33 ft | 2 kts | 328° |
| 2026-05-04 18:07 | 35.56149 | 139.78965 | 33 ft | 3 kts | 327° |
| 2026-05-04 18:07 | 35.56156 | 139.78959 | 33 ft | 5 kts | 327° |
| 2026-05-04 18:08 | 35.56176 | 139.78922 | 32 ft | 8 kts | 288° |
| 2026-05-04 18:08 | 35.56158 | 139.78837 | 29 ft | 14 kts | 243° |
| 2026-05-04 18:08 | 35.56143 | 139.78728 | 30 ft | 13 kts | 304° |
| 2026-05-04 18:08 | 35.56205 | 139.78676 | 30 ft | 14 kts | 330° |
| 2026-05-04 18:09 | 35.56349 | 139.78572 | 31 ft | 18 kts | 329° |
| 2026-05-04 18:09 | 35.56357 | 139.78411 | 31 ft | 16 kts | 243° |
| 2026-05-04 18:10 | 35.56332 | 139.78352 | 31 ft | 19 kts | 243° |
| 2026-05-04 18:10 | 35.56259 | 139.78200 | 31 ft | 23 kts | 239° |
| 2026-05-04 18:10 | 35.56174 | 139.78027 | 31 ft | 27 kts | 239° |
| 2026-05-04 18:10 | 35.56123 | 139.77922 | 31 ft | 28 kts | 239° |
| 2026-05-04 18:11 | 35.56047 | 139.77761 | 30 ft | 22 kts | 239° |
| 2026-05-04 18:11 | 35.55965 | 139.77585 | 30 ft | 22 kts | 240° |
| 2026-05-04 18:11 | 35.55899 | 139.77444 | 29 ft | 17 kts | 238° |
| 2026-05-04 18:11 | 35.55829 | 139.77411 | 29 ft | 10 kts | 165° |
| 2026-05-04 18:12 | 35.55758 | 139.77459 | 28 ft | 13 kts | 148° |
| 2026-05-04 18:12 | 35.55695 | 139.77506 | 28 ft | 15 kts | 148° |
| 2026-05-04 18:12 | 35.55593 | 139.77578 | 28 ft | 18 kts | 150° |
| 2026-05-04 18:12 | 35.55474 | 139.77661 | 28 ft | 21 kts | 150° |
| 2026-05-04 18:13 | 35.55351 | 139.77746 | 28 ft | 20 kts | 150° |
| 2026-05-04 18:13 | 35.55233 | 139.77831 | 29 ft | 19 kts | 149° |
| 2026-05-04 18:13 | 35.54996 | 139.78000 | 29 ft | 20 kts | 150° |
| 2026-05-04 18:14 | 35.54920 | 139.78059 | 29 ft | 11 kts | 135° |
| 2026-05-04 18:14 | 35.54916 | 139.78129 | 28 ft | 8 kts | 69° |
| 2026-05-04 18:14 | 35.54941 | 139.78188 | 29 ft | 8 kts | 62° |
| 2026-05-04 18:15 | 35.54951 | 139.78210 | 29 ft | 0 kts | 60° |